createdAt,value
2019-01-31T00:00:04.140Z,-3.1
2019-01-31T00:01:03.069Z,-3.1
2019-01-31T00:02:02.492Z,-2.9
2019-01-31T00:03:02.966Z,-3
2019-01-31T00:04:03.347Z,-2.9
2019-01-31T00:05:02.701Z,-2.8
2019-01-31T00:06:03.362Z,-2.9
2019-01-31T00:07:02.888Z,-3.1
2019-01-31T00:08:03.135Z,-3.1
2019-01-31T00:09:03.666Z,-2.9
2019-01-31T00:10:02.846Z,-3.1
2019-01-31T00:11:02.951Z,-3.1
2019-01-31T00:12:03.053Z,-3
2019-01-31T00:13:03.609Z,-2.9
2019-01-31T00:14:03.465Z,-2.9
2019-01-31T00:15:03.566Z,-3
2019-01-31T00:16:03.624Z,-3.2
2019-01-31T00:17:03.607Z,-3.2
2019-01-31T00:18:03.559Z,-3.3
2019-01-31T00:19:02.401Z,-3.2
2019-01-31T00:20:02.889Z,-3.2
2019-01-31T00:21:02.881Z,-3.3
2019-01-31T00:22:03.189Z,-3.3
2019-01-31T00:23:03.240Z,-3.3
2019-01-31T00:24:02.987Z,-3.3
2019-01-31T00:25:03.617Z,-3.3
2019-01-31T00:26:02.571Z,-3.6
2019-01-31T00:27:03.723Z,-3.6
2019-01-31T00:28:03.128Z,-3.9
2019-01-31T00:29:03.495Z,-3.9
2019-01-31T00:30:03.281Z,-3.7
2019-01-31T00:31:02.676Z,-3.8
2019-01-31T00:32:02.800Z,-3.6
2019-01-31T00:33:03.015Z,-3.6
2019-01-31T00:34:03.422Z,-3.5
2019-01-31T00:35:03.422Z,-3.4
2019-01-31T00:36:03.639Z,-3.9
2019-01-31T00:37:02.602Z,-4.1
2019-01-31T00:38:03.258Z,-4.1
2019-01-31T00:39:02.674Z,-4.1
2019-01-31T00:40:03.434Z,-4.1
2019-01-31T00:41:03.415Z,-4.1
2019-01-31T00:42:02.750Z,-4
2019-01-31T00:43:03.545Z,-4
2019-01-31T00:44:02.926Z,-4
2019-01-31T00:45:03.441Z,-3.9
2019-01-31T00:46:02.642Z,-3.9
2019-01-31T00:47:02.772Z,-3.9
2019-01-31T00:48:02.780Z,-3.9
2019-01-31T00:49:03.604Z,-3.9
2019-01-31T00:50:03.594Z,-3.9
2019-01-31T00:51:03.879Z,-3.9
2019-01-31T00:52:03.374Z,-3.9
2019-01-31T00:53:03.492Z,-3.9
2019-01-31T00:54:03.567Z,-3.9
2019-01-31T00:55:03.623Z,-3.9
2019-01-31T00:56:03.145Z,-3.9
2019-01-31T00:57:03.407Z,-3.9
2019-01-31T00:58:02.679Z,-3.9
2019-01-31T00:59:03.093Z,-4
2019-01-31T01:00:03.446Z,-3.9
2019-01-31T01:01:02.610Z,-3.9
2019-01-31T01:02:02.952Z,-3.9
2019-01-31T01:03:03.280Z,-3.8
2019-01-31T01:04:03.410Z,-3.9
2019-01-31T01:05:03.386Z,-3.9
2019-01-31T01:06:03.268Z,-3.9
2019-01-31T01:07:03.000Z,-3.9
2019-01-31T01:08:02.898Z,-3.9
2019-01-31T01:09:07.705Z,-3.9
2019-01-31T01:10:03.638Z,-3.9
2019-01-31T01:11:03.557Z,-3.9
2019-01-31T01:12:04.524Z,-3.9
2019-01-31T01:13:02.817Z,-3.8
2019-01-31T01:14:03.436Z,-3.8
2019-01-31T01:15:03.100Z,-3.9
2019-01-31T01:16:03.301Z,-3.9
2019-01-31T01:17:02.943Z,-3.9
2019-01-31T01:18:03.573Z,-3.9
2019-01-31T01:19:02.533Z,-3.9
2019-01-31T01:20:02.795Z,-4.4
2019-01-31T01:21:02.686Z,-4.5
2019-01-31T01:22:03.018Z,-4.7
2019-01-31T01:23:03.354Z,-4.6
2019-01-31T01:24:02.987Z,-4.6
2019-01-31T01:25:02.978Z,-4.5
2019-01-31T01:26:02.858Z,-4.3
2019-01-31T01:27:02.788Z,-4.4
2019-01-31T01:28:03.056Z,-4.3
2019-01-31T01:29:03.478Z,-4.4
2019-01-31T01:30:02.725Z,-4.3
2019-01-31T01:31:03.377Z,-4.4
2019-01-31T01:32:02.605Z,-4.5
2019-01-31T01:33:03.146Z,-4.7
2019-01-31T01:34:03.470Z,-4.9
2019-01-31T01:35:03.338Z,-4.9
2019-01-31T01:36:02.927Z,-4.8
2019-01-31T01:37:03.293Z,-4.8
2019-01-31T01:38:03.281Z,-4.8
2019-01-31T01:39:03.262Z,-4.7
2019-01-31T01:40:02.877Z,-4.7
2019-01-31T01:41:03.011Z,-4.7
2019-01-31T01:42:02.852Z,-4.7
2019-01-31T01:43:02.870Z,-4.9
2019-01-31T01:44:02.698Z,-5.1
2019-01-31T01:45:03.299Z,-5.1
2019-01-31T01:46:02.939Z,-5.2
2019-01-31T01:47:03.385Z,-5.3
2019-01-31T01:48:03.300Z,-5.3
2019-01-31T01:49:03.530Z,-5.2
2019-01-31T01:50:03.161Z,-5.1
2019-01-31T01:51:03.433Z,-5.1
2019-01-31T01:52:03.559Z,-5.3
2019-01-31T01:53:03.134Z,-5.2
2019-01-31T01:54:03.310Z,-5.1
2019-01-31T01:55:02.976Z,-5.1
2019-01-31T01:56:03.260Z,-5
2019-01-31T01:57:02.880Z,-5.1
2019-01-31T01:58:03.250Z,-5.2
2019-01-31T01:59:03.314Z,-5.2
2019-01-31T02:00:03.043Z,-5.3
2019-01-31T02:01:03.344Z,-5.3
2019-01-31T02:02:03.508Z,-5.3
2019-01-31T02:03:03.337Z,-5.3
2019-01-31T02:04:03.183Z,-5.2
2019-01-31T02:05:03.395Z,-5.3
2019-01-31T02:06:03.603Z,-5.3
2019-01-31T02:07:02.622Z,-5.2
2019-01-31T02:08:03.095Z,-5.2
2019-01-31T02:09:01.930Z,-5.3
2019-01-31T02:10:03.465Z,-5.3
2019-01-31T02:11:03.455Z,-5.3
2019-01-31T02:12:03.588Z,-5.4
2019-01-31T02:13:02.948Z,-5.4
2019-01-31T02:14:03.486Z,-5.4
2019-01-31T02:15:02.675Z,-5.6
2019-01-31T02:16:03.031Z,-5.6
2019-01-31T02:17:03.448Z,-5.5
2019-01-31T02:18:03.407Z,-5.5
2019-01-31T02:19:03.393Z,-5.5
2019-01-31T02:20:03.498Z,-5.4
2019-01-31T02:21:02.938Z,-5.5
2019-01-31T02:22:03.096Z,-5.6
2019-01-31T02:23:02.658Z,-5.6
2019-01-31T02:24:03.420Z,-5.6
2019-01-31T02:25:02.822Z,-5.6
2019-01-31T02:26:03.456Z,-5.6
2019-01-31T02:27:03.087Z,-5.6
2019-01-31T02:28:03.467Z,-5.4
2019-01-31T02:29:03.112Z,-5.4
2019-01-31T02:30:03.475Z,-5.4
2019-01-31T02:31:03.181Z,-5.3
2019-01-31T02:32:03.008Z,-5.4
2019-01-31T02:33:03.296Z,-5.5
2019-01-31T02:34:03.249Z,-5.5
2019-01-31T02:35:02.828Z,-5.6
2019-01-31T02:36:05.026Z,-5.5
2019-01-31T02:37:02.998Z,-5.6
2019-01-31T02:38:02.945Z,-5.6
2019-01-31T02:39:03.234Z,-5.5
2019-01-31T02:40:03.129Z,-5.5
2019-01-31T02:41:03.332Z,-5.5
2019-01-31T02:42:03.236Z,-5.4
2019-01-31T02:43:03.497Z,-5.3
2019-01-31T02:44:02.697Z,-5.3
2019-01-31T02:45:03.280Z,-5.3
2019-01-31T02:46:03.321Z,-5.3
2019-01-31T02:47:02.656Z,-5.3
2019-01-31T02:48:03.351Z,-5.4
2019-01-31T02:49:03.636Z,-5.4
2019-01-31T02:50:03.340Z,-5.4
2019-01-31T02:51:02.518Z,-5.4
2019-01-31T02:52:03.335Z,-5.4
2019-01-31T02:53:02.819Z,-5.4
2019-01-31T02:54:03.668Z,-5.6
2019-01-31T02:55:02.937Z,-5.6
2019-01-31T02:56:03.005Z,-5.8
2019-01-31T02:57:02.908Z,-6.1
2019-01-31T02:58:02.664Z,-6.3
2019-01-31T02:59:03.190Z,-6.3
2019-01-31T03:00:03.593Z,-6.4
2019-01-31T03:01:02.607Z,-6.4
2019-01-31T03:02:03.660Z,-6.3
2019-01-31T03:03:02.906Z,-6.2
2019-01-31T03:04:03.237Z,-6.2
2019-01-31T03:05:02.915Z,-6.1
2019-01-31T03:06:03.277Z,-6.1
2019-01-31T03:07:02.871Z,-6
2019-01-31T03:08:03.370Z,-6
2019-01-31T03:09:02.789Z,-6
2019-01-31T03:10:03.570Z,-6.2
2019-01-31T03:11:02.566Z,-6.3
2019-01-31T03:12:03.241Z,-6.2
2019-01-31T03:13:02.897Z,-6.1
2019-01-31T03:14:10.102Z,-6.1
2019-01-31T03:15:02.895Z,-6.1
2019-01-31T03:16:03.260Z,-6.1
2019-01-31T03:17:03.007Z,-6.1
2019-01-31T03:18:03.364Z,-6.1
2019-01-31T03:19:02.983Z,-6.1
2019-01-31T03:20:03.185Z,-6.1
2019-01-31T03:21:02.687Z,-6.1
2019-01-31T03:22:03.186Z,-6
2019-01-31T03:23:02.840Z,-5.9
2019-01-31T03:24:03.297Z,-5.9
2019-01-31T03:25:02.761Z,-6.1
2019-01-31T03:26:02.756Z,-6.2
2019-01-31T03:27:02.974Z,-6.3
2019-01-31T03:28:02.768Z,-6.3
2019-01-31T03:29:02.874Z,-6.1
2019-01-31T03:30:03.008Z,-6.1
2019-01-31T03:31:03.444Z,-6.1
2019-01-31T03:32:03.419Z,-6
2019-01-31T03:33:02.774Z,-6
2019-01-31T03:34:02.841Z,-6.1
2019-01-31T03:35:02.868Z,-6.2
2019-01-31T03:36:02.868Z,-6.3
2019-01-31T03:37:02.537Z,-6.3
2019-01-31T03:38:03.632Z,-6.2
2019-01-31T03:39:03.345Z,-6.1
2019-01-31T03:40:06.782Z,-6.2
2019-01-31T03:41:02.700Z,-6.2
2019-01-31T03:42:03.408Z,-6.1
2019-01-31T03:43:03.116Z,-6.1
2019-01-31T03:44:03.491Z,-6.1
2019-01-31T03:45:02.839Z,-6.1
2019-01-31T03:46:03.483Z,-6.1
2019-01-31T03:47:03.278Z,-6
2019-01-31T03:48:03.025Z,-6
2019-01-31T03:49:03.323Z,-6.1
2019-01-31T03:50:06.545Z,-6.1
2019-01-31T03:51:03.423Z,-6
2019-01-31T03:52:03.416Z,-6
2019-01-31T03:53:03.531Z,-6.1
2019-01-31T03:54:03.648Z,-6.1
2019-01-31T03:55:03.092Z,-6.3
2019-01-31T03:56:02.595Z,-6.2
2019-01-31T03:57:02.768Z,-6.2
2019-01-31T03:58:03.084Z,-6.2
2019-01-31T03:59:03.286Z,-6.1
2019-01-31T04:00:02.742Z,-6.1
2019-01-31T04:01:02.824Z,-6.1
2019-01-31T04:02:02.847Z,-6.3
2019-01-31T04:03:03.119Z,-6.3
2019-01-31T04:04:03.564Z,-6.3
2019-01-31T04:05:03.593Z,-6.3
2019-01-31T04:06:03.339Z,-6.3
2019-01-31T04:07:02.719Z,-6.2
2019-01-31T04:08:03.009Z,-6.2
2019-01-31T04:09:03.739Z,-6.1
2019-01-31T04:10:03.737Z,-6.4
2019-01-31T04:11:03.667Z,-6.5
2019-01-31T04:12:03.137Z,-6.5
2019-01-31T04:13:03.469Z,-6.4
2019-01-31T04:14:03.262Z,-6.3
2019-01-31T04:15:02.848Z,-6.3
2019-01-31T04:16:02.833Z,-6.3
2019-01-31T04:17:03.383Z,-6.2
2019-01-31T04:18:02.943Z,-6.1
2019-01-31T04:19:03.390Z,-6.1
2019-01-31T04:20:02.646Z,-6.1
2019-01-31T04:21:02.850Z,-6.1
2019-01-31T04:22:03.534Z,-6.2
2019-01-31T04:23:03.363Z,-6.2
2019-01-31T04:24:03.669Z,-6.4
2019-01-31T04:25:03.205Z,-6.4
2019-01-31T04:26:03.021Z,-6.4
2019-01-31T04:27:02.980Z,-6.3
2019-01-31T04:28:03.434Z,-6.3
2019-01-31T04:29:02.804Z,-6.8
2019-01-31T04:30:03.218Z,-6.8
2019-01-31T04:31:03.213Z,-6.7
2019-01-31T04:32:02.920Z,-6.6
2019-01-31T04:33:02.501Z,-6.6
2019-01-31T04:34:03.705Z,-6.6
2019-01-31T04:35:03.657Z,-6.6
2019-01-31T04:36:03.166Z,-6.6
2019-01-31T04:37:02.900Z,-6.6
2019-01-31T04:38:02.920Z,-6.7
2019-01-31T04:39:03.401Z,-6.7
2019-01-31T04:40:03.637Z,-6.8
2019-01-31T04:41:03.445Z,-6.8
2019-01-31T04:42:03.012Z,-6.8
2019-01-31T04:43:03.317Z,-6.8
2019-01-31T04:44:03.115Z,-6.8
2019-01-31T04:45:02.868Z,-6.8
2019-01-31T04:46:02.360Z,-6.7
2019-01-31T04:47:03.609Z,-6.8
2019-01-31T04:48:03.205Z,-6.8
2019-01-31T04:49:03.623Z,-6.9
2019-01-31T04:50:03.688Z,-6.9
2019-01-31T04:51:02.731Z,-6.8
2019-01-31T04:52:03.262Z,-6.6
2019-01-31T04:53:03.424Z,-6.6
2019-01-31T04:54:03.571Z,-6.6
2019-01-31T04:55:02.841Z,-6.5
2019-01-31T04:56:03.342Z,-6.4
2019-01-31T04:57:03.240Z,-6.3
2019-01-31T04:58:03.143Z,-6.3
2019-01-31T04:59:03.347Z,-6.3
2019-01-31T05:00:02.717Z,-6.3
2019-01-31T05:01:03.022Z,-6.3
2019-01-31T05:02:02.903Z,-6.4
2019-01-31T05:03:03.304Z,-6.4
2019-01-31T05:04:02.558Z,-6.6
2019-01-31T05:05:03.161Z,-6.6
2019-01-31T05:06:03.460Z,-6.5
2019-01-31T05:07:02.996Z,-6.4
2019-01-31T05:08:02.772Z,-6.4
2019-01-31T05:09:03.018Z,-6.4
2019-01-31T05:10:03.257Z,-6.4
2019-01-31T05:11:03.657Z,-6.4
2019-01-31T05:12:03.571Z,-6.7
2019-01-31T05:13:03.209Z,-6.8
2019-01-31T05:14:03.195Z,-6.8
2019-01-31T05:15:03.521Z,-6.8
2019-01-31T05:16:04.049Z,-6.7
2019-01-31T05:17:02.808Z,-6.6
2019-01-31T05:18:03.163Z,-6.6
2019-01-31T05:19:03.436Z,-6.6
2019-01-31T05:20:02.959Z,-6.6
2019-01-31T05:21:03.411Z,-6.6
2019-01-31T05:22:03.350Z,-6.6
2019-01-31T05:23:03.126Z,-6.7
2019-01-31T05:24:03.107Z,-6.6
2019-01-31T05:25:03.298Z,-6.6
2019-01-31T05:26:03.345Z,-6.6
2019-01-31T05:27:04.425Z,-6.4
2019-01-31T05:28:02.919Z,-6.4
2019-01-31T05:29:03.366Z,-6.4
2019-01-31T05:30:03.779Z,-6.5
2019-01-31T05:31:02.816Z,-6.6
2019-01-31T05:32:02.875Z,-6.6
2019-01-31T05:33:03.534Z,-6.6
2019-01-31T05:34:03.572Z,-6.6
2019-01-31T05:35:03.497Z,-6.7
2019-01-31T05:36:02.991Z,-6.7
2019-01-31T05:37:03.614Z,-6.7
2019-01-31T05:38:03.197Z,-6.8
2019-01-31T05:39:03.372Z,-6.8
2019-01-31T05:40:02.767Z,-6.9
2019-01-31T05:41:03.494Z,-7
2019-01-31T05:42:03.783Z,-7.1
2019-01-31T05:43:03.567Z,-7.1
2019-01-31T05:44:02.730Z,-7.1
2019-01-31T05:45:03.307Z,-7.1
2019-01-31T05:46:03.560Z,-7.1
2019-01-31T05:47:02.678Z,-7.1
2019-01-31T05:48:03.403Z,-7.1
2019-01-31T05:49:03.107Z,-7.1
2019-01-31T05:50:03.322Z,-7.1
2019-01-31T05:51:03.637Z,-7.2
2019-01-31T05:52:03.700Z,-7.1
2019-01-31T05:53:03.439Z,-7
2019-01-31T05:54:03.070Z,-6.9
2019-01-31T05:55:03.569Z,-6.8
2019-01-31T05:56:02.777Z,-6.7
2019-01-31T05:57:02.880Z,-6.6
2019-01-31T05:58:02.754Z,-6.6
2019-01-31T05:59:05.549Z,-6.6
2019-01-31T06:00:03.661Z,-6.6
2019-01-31T06:01:02.895Z,-6.6
2019-01-31T06:02:03.250Z,-6.6
2019-01-31T06:03:02.797Z,-6.6
2019-01-31T06:04:03.117Z,-6.6
2019-01-31T06:05:02.965Z,-6.6
2019-01-31T06:06:03.255Z,-6.6
2019-01-31T06:07:10.856Z,-6.6
2019-01-31T06:08:03.225Z,-6.6
2019-01-31T06:09:02.783Z,-6.8
2019-01-31T06:10:03.121Z,-6.8
2019-01-31T06:11:07.318Z,-6.9
2019-01-31T06:12:03.345Z,-7
2019-01-31T06:13:03.101Z,-7
2019-01-31T06:14:03.418Z,-7
2019-01-31T06:15:03.778Z,-7.3
2019-01-31T06:16:03.275Z,-7.3
2019-01-31T06:17:03.178Z,-7.3
2019-01-31T06:18:03.021Z,-7.3
2019-01-31T06:19:03.576Z,-7.2
2019-01-31T06:20:02.665Z,-7.2
2019-01-31T06:21:02.863Z,-7.2
2019-01-31T06:22:02.577Z,-7.2
2019-01-31T06:23:03.140Z,-7.1
2019-01-31T06:24:02.469Z,-7.1
2019-01-31T06:25:02.655Z,-7.1
2019-01-31T06:26:03.166Z,-6.9
2019-01-31T06:27:02.929Z,-7.2
2019-01-31T06:28:03.608Z,-7.4
2019-01-31T06:29:03.269Z,-7.6
2019-01-31T06:30:03.026Z,-7.8
2019-01-31T06:31:03.129Z,-7.8
2019-01-31T06:32:02.644Z,-7.7
2019-01-31T06:33:02.728Z,-7.7
2019-01-31T06:34:03.314Z,-7.6
2019-01-31T06:35:03.041Z,-7.6
2019-01-31T06:36:03.729Z,-7.6
2019-01-31T06:37:02.819Z,-7.4
2019-01-31T06:38:02.832Z,-7.4
2019-01-31T06:39:03.456Z,-7.4
2019-01-31T06:40:03.310Z,-7.3
2019-01-31T06:41:03.807Z,-7.3
2019-01-31T06:42:03.058Z,-7.3
2019-01-31T06:43:02.818Z,-7.4
2019-01-31T06:44:03.205Z,-7.4
2019-01-31T06:45:03.250Z,-7.3
2019-01-31T06:46:03.127Z,-7.3
2019-01-31T06:47:02.721Z,-7.3
2019-01-31T06:48:05.077Z,-7.3
2019-01-31T06:49:03.334Z,-7.4
2019-01-31T06:50:03.774Z,-7.4
2019-01-31T06:51:02.760Z,-7.4
2019-01-31T06:52:03.216Z,-7.4
2019-01-31T06:53:03.427Z,-7.4
2019-01-31T06:54:03.406Z,-7.5
2019-01-31T06:55:02.930Z,-7.4
2019-01-31T06:56:03.131Z,-7.4
2019-01-31T06:57:03.491Z,-7.6
2019-01-31T06:58:03.478Z,-7.6
2019-01-31T06:59:02.805Z,-7.7
2019-01-31T07:00:02.821Z,-7.7
2019-01-31T07:01:03.429Z,-7.6
2019-01-31T07:02:02.677Z,-7.5
2019-01-31T07:03:03.503Z,-7.4
2019-01-31T07:04:02.741Z,-7.4
2019-01-31T07:05:03.416Z,-7.4
2019-01-31T07:06:03.615Z,-7.4
2019-01-31T07:07:02.517Z,-7.4
2019-01-31T07:08:04.768Z,-7.4
2019-01-31T07:09:03.124Z,-7.4
2019-01-31T07:10:03.629Z,-7.4
2019-01-31T07:11:03.590Z,-7.3
2019-01-31T07:12:02.773Z,-7.4
2019-01-31T07:13:02.652Z,-7.3
2019-01-31T07:14:03.697Z,-7.3
2019-01-31T07:15:03.667Z,-7.3
2019-01-31T07:16:02.808Z,-7.3
2019-01-31T07:17:02.841Z,-7.3
2019-01-31T07:18:03.353Z,-7.2
2019-01-31T07:19:02.849Z,-7.2
2019-01-31T07:20:03.396Z,-7.3
2019-01-31T07:21:02.760Z,-7.2
2019-01-31T07:22:02.921Z,-7.2
2019-01-31T07:23:02.707Z,-6.9
2019-01-31T07:24:02.798Z,-6.9
2019-01-31T07:25:02.966Z,-6.9
2019-01-31T07:26:03.457Z,-6.9
2019-01-31T07:27:03.131Z,-6.8
2019-01-31T07:28:03.431Z,-6.7
2019-01-31T07:29:02.820Z,-6.6
2019-01-31T07:30:03.139Z,-6.6
2019-01-31T07:31:03.295Z,-6.6
2019-01-31T07:32:03.663Z,-6.8
2019-01-31T07:33:03.179Z,-6.8
2019-01-31T07:34:03.296Z,-6.8
2019-01-31T07:35:02.741Z,-6.8
2019-01-31T07:36:03.346Z,-6.8
2019-01-31T07:37:03.264Z,-6.9
2019-01-31T07:38:03.266Z,-6.9
2019-01-31T07:39:02.864Z,-6.9
2019-01-31T07:40:03.215Z,-6.9
2019-01-31T07:41:02.593Z,-6.9
2019-01-31T07:42:03.721Z,-6.8
2019-01-31T07:43:03.630Z,-6.8
2019-01-31T07:44:03.479Z,-6.8
2019-01-31T07:45:02.943Z,-6.8
2019-01-31T07:46:03.235Z,-6.8
2019-01-31T07:47:03.409Z,-6.8
2019-01-31T07:48:03.041Z,-6.7
2019-01-31T07:49:02.901Z,-6.7
2019-01-31T07:50:03.691Z,-6.7
2019-01-31T07:51:02.668Z,-6.7
2019-01-31T07:52:02.901Z,-6.6
2019-01-31T07:53:02.935Z,-6.4
2019-01-31T07:54:03.692Z,-6.2
2019-01-31T07:55:03.111Z,-6.1
2019-01-31T07:56:03.573Z,-6.1
2019-01-31T07:57:03.351Z,-5.9
2019-01-31T07:58:02.972Z,-5.8
2019-01-31T07:59:02.778Z,-5.8
2019-01-31T08:00:03.797Z,-5.6
2019-01-31T08:01:02.270Z,-5.6
2019-01-31T08:02:02.648Z,-5.5
2019-01-31T08:03:03.291Z,-5.4
2019-01-31T08:04:03.533Z,-5.4
2019-01-31T08:05:03.226Z,-5.3
2019-01-31T08:06:02.870Z,-5.3
2019-01-31T08:07:03.270Z,-5.4
2019-01-31T08:08:03.531Z,-5.3
2019-01-31T08:09:02.944Z,-5.4
2019-01-31T08:10:02.796Z,-5.3
2019-01-31T08:11:03.176Z,-5.2
2019-01-31T08:12:03.697Z,-5.2
2019-01-31T08:13:03.341Z,-5
2019-01-31T08:14:03.100Z,-4.9
2019-01-31T08:15:03.844Z,-4.9
2019-01-31T08:16:03.304Z,-4.8
2019-01-31T08:17:03.259Z,-4.9
2019-01-31T08:18:03.046Z,-4.8
2019-01-31T08:19:02.963Z,-4.6
2019-01-31T08:20:03.634Z,-4.6
2019-01-31T08:21:03.635Z,-4.5
2019-01-31T08:22:03.575Z,-4.4
2019-01-31T08:23:03.484Z,-4.4
2019-01-31T08:24:03.810Z,-4.3
2019-01-31T08:25:03.364Z,-4.3
2019-01-31T08:26:03.413Z,-4.2
2019-01-31T08:27:02.729Z,-4.1
2019-01-31T08:28:02.593Z,-4.1
2019-01-31T08:29:02.885Z,-4.1
2019-01-31T08:30:03.489Z,-3.9
2019-01-31T08:31:03.575Z,-3.9
2019-01-31T08:32:03.196Z,-3.9
2019-01-31T08:33:03.189Z,-3.9
2019-01-31T08:34:03.135Z,-3.8
2019-01-31T08:35:03.327Z,-3.8
2019-01-31T08:36:03.266Z,-3.7
2019-01-31T08:37:02.493Z,-3.6
2019-01-31T08:38:03.507Z,-3.6
2019-01-31T08:39:03.284Z,-3.6
2019-01-31T08:40:03.261Z,-3.4
2019-01-31T08:41:03.033Z,-3.4
2019-01-31T08:42:04.089Z,-3.3
2019-01-31T08:43:03.111Z,-3.3
2019-01-31T08:44:03.170Z,-3.2
2019-01-31T08:45:03.288Z,-3.1
2019-01-31T08:46:02.833Z,-3.1
2019-01-31T08:47:02.833Z,-3.1
2019-01-31T08:48:02.774Z,-2.9
2019-01-31T08:49:03.045Z,-2.9
2019-01-31T08:50:03.220Z,-2.9
2019-01-31T08:51:03.299Z,-2.8
2019-01-31T08:52:03.424Z,-2.8
2019-01-31T08:53:03.165Z,-2.8
2019-01-31T08:54:03.195Z,-2.8
2019-01-31T08:55:02.713Z,-2.6
2019-01-31T08:56:03.387Z,-2.6
2019-01-31T08:57:02.815Z,-2.5
2019-01-31T08:58:02.929Z,-2.4
2019-01-31T08:59:03.222Z,-2.4
2019-01-31T09:00:03.386Z,-2.3
2019-01-31T09:01:03.626Z,-2.3
2019-01-31T09:02:02.745Z,-2.3
2019-01-31T09:03:03.169Z,-2.2
2019-01-31T09:04:03.460Z,-2.1
2019-01-31T09:05:03.519Z,-2
2019-01-31T09:06:02.909Z,-1.9
2019-01-31T09:07:02.756Z,-1.9
2019-01-31T09:08:03.539Z,-1.9
2019-01-31T09:09:02.772Z,-1.9
2019-01-31T09:10:03.212Z,-1.8
2019-01-31T09:11:02.734Z,-1.6
2019-01-31T09:12:02.920Z,-1.7
2019-01-31T09:13:03.037Z,-1.8
2019-01-31T09:14:03.387Z,-1.8
2019-01-31T09:15:02.904Z,-1.6
2019-01-31T09:16:03.412Z,-1.5
2019-01-31T09:17:03.099Z,-1.4
2019-01-31T09:18:03.265Z,-1.3
2019-01-31T09:19:04.099Z,-1.3
2019-01-31T09:20:03.505Z,-1.3
2019-01-31T09:21:03.675Z,-1.2
2019-01-31T09:22:03.248Z,-1.3
2019-01-31T09:23:02.965Z,-1.1
2019-01-31T09:24:03.511Z,-1.2
2019-01-31T09:25:03.355Z,-1.3
2019-01-31T09:26:02.861Z,-1.4
2019-01-31T09:27:02.904Z,-1.4
2019-01-31T09:28:03.057Z,-1.1
2019-01-31T09:29:03.228Z,-1.1
2019-01-31T09:30:02.664Z,-1.1
2019-01-31T09:31:03.616Z,-0.9
2019-01-31T09:32:03.612Z,-0.9
2019-01-31T09:33:03.157Z,-0.9
2019-01-31T09:34:03.118Z,-1
2019-01-31T09:35:05.033Z,-1
2019-01-31T09:36:02.780Z,-0.9
2019-01-31T09:37:03.206Z,-0.9
2019-01-31T09:38:03.590Z,-0.9
2019-01-31T09:39:03.368Z,-0.9
2019-01-31T09:40:03.191Z,-0.8
2019-01-31T09:41:03.189Z,-0.9
2019-01-31T09:42:03.337Z,-0.8
2019-01-31T09:43:03.633Z,-0.9
2019-01-31T09:44:03.426Z,-1
2019-01-31T09:45:04.767Z,-1
2019-01-31T09:46:02.863Z,-1
2019-01-31T09:47:03.781Z,-1.1
2019-01-31T09:48:03.734Z,-1.1
2019-01-31T09:49:02.913Z,-0.9
2019-01-31T09:50:03.493Z,-1.1
2019-01-31T09:51:03.490Z,-0.9
2019-01-31T09:52:03.460Z,-0.7
2019-01-31T09:53:03.748Z,-0.8
2019-01-31T09:54:02.697Z,-0.6
2019-01-31T09:55:03.043Z,-0.6
2019-01-31T09:56:02.688Z,-0.6
2019-01-31T09:57:02.740Z,-0.6
2019-01-31T09:58:02.977Z,-0.8
2019-01-31T09:59:02.475Z,-0.6
2019-01-31T10:00:03.008Z,-0.6
2019-01-31T10:01:02.634Z,-0.3
2019-01-31T10:02:02.877Z,-0.1
2019-01-31T10:03:03.068Z,-0.1
2019-01-31T10:04:03.019Z,-0.1
2019-01-31T10:05:03.491Z,-0.1
2019-01-31T10:06:02.767Z,-0.1
2019-01-31T10:07:03.289Z,0.1
2019-01-31T10:08:03.588Z,0.2
2019-01-31T10:09:03.838Z,0.3
2019-01-31T10:10:03.394Z,0.3
2019-01-31T10:11:02.567Z,0.1
2019-01-31T10:12:03.340Z,0.1
2019-01-31T10:13:02.840Z,0.3
2019-01-31T10:14:03.574Z,0.1
2019-01-31T10:15:03.437Z,0.3
2019-01-31T10:16:03.055Z,0.2
2019-01-31T10:17:03.592Z,0.2
2019-01-31T10:18:02.828Z,0.4
2019-01-31T10:19:03.308Z,0.6
2019-01-31T10:20:02.958Z,0.8
2019-01-31T10:21:03.353Z,0.7
2019-01-31T10:22:02.868Z,0.6
2019-01-31T10:23:02.969Z,0.6
2019-01-31T10:24:03.134Z,0.6
2019-01-31T10:25:03.731Z,0.6
2019-01-31T10:26:02.992Z,1.1
2019-01-31T10:27:03.044Z,1.1
2019-01-31T10:28:02.939Z,1.1
2019-01-31T10:29:03.030Z,1
2019-01-31T10:30:03.641Z,1.1
2019-01-31T10:31:03.559Z,1.1
2019-01-31T10:32:03.018Z,1.3
2019-01-31T10:33:02.892Z,1.3
2019-01-31T10:34:03.227Z,0.9
2019-01-31T10:35:03.749Z,1.1
2019-01-31T10:36:05.469Z,1.7
2019-01-31T10:37:03.227Z,1.8
2019-01-31T10:38:03.518Z,1.7
2019-01-31T10:39:03.710Z,1.9
2019-01-31T10:40:03.722Z,1.7
2019-01-31T10:41:03.356Z,1.9
2019-01-31T10:42:03.490Z,2.3
2019-01-31T10:43:03.640Z,2.3
2019-01-31T10:44:02.823Z,2.1
2019-01-31T10:45:02.962Z,2.1
2019-01-31T10:46:03.518Z,2.5
2019-01-31T10:47:03.127Z,2.4
2019-01-31T10:48:03.242Z,2.4
2019-01-31T10:49:03.481Z,2.3
2019-01-31T10:50:03.600Z,2.8
2019-01-31T10:51:03.708Z,2.4
2019-01-31T10:52:03.039Z,2.4
2019-01-31T10:53:02.696Z,2.4
2019-01-31T10:54:03.332Z,2.7
2019-01-31T10:55:02.839Z,2.5
2019-01-31T10:56:03.476Z,2.6
2019-01-31T10:57:03.325Z,2.6
2019-01-31T10:58:03.105Z,2.9
2019-01-31T10:59:02.955Z,2.7
2019-01-31T11:00:02.844Z,2.5
2019-01-31T11:01:03.099Z,2.9
2019-01-31T11:02:03.715Z,2.8
2019-01-31T11:03:02.560Z,2.7
2019-01-31T11:04:02.321Z,2.7
2019-01-31T11:05:03.869Z,2.9
2019-01-31T11:06:03.283Z,2.8
2019-01-31T11:07:03.627Z,3
2019-01-31T11:08:02.415Z,2.9
2019-01-31T11:09:03.318Z,3.2
2019-01-31T11:10:03.127Z,3.3
2019-01-31T11:11:03.020Z,3.4
2019-01-31T11:12:03.355Z,3.6
2019-01-31T11:13:03.307Z,3.1
2019-01-31T11:14:03.155Z,3
2019-01-31T11:15:03.111Z,3
2019-01-31T11:16:03.428Z,3
2019-01-31T11:17:03.422Z,3.3
2019-01-31T11:18:02.305Z,3.3
2019-01-31T11:19:12.004Z,3.3
2019-01-31T11:20:03.525Z,3.3
2019-01-31T11:21:03.355Z,3.6
2019-01-31T11:22:02.785Z,3.5
2019-01-31T11:23:03.372Z,3.5
2019-01-31T11:24:02.753Z,3.5
2019-01-31T11:25:03.000Z,3.9
2019-01-31T11:26:03.307Z,4.1
2019-01-31T11:27:03.235Z,4.3
2019-01-31T11:28:03.689Z,4.7
2019-01-31T11:29:02.953Z,4.3
2019-01-31T11:30:03.143Z,3.9
2019-01-31T11:31:03.460Z,3.9
2019-01-31T11:32:03.027Z,3.9
2019-01-31T11:33:03.657Z,3.6
2019-01-31T11:34:03.027Z,3.6
2019-01-31T11:35:02.921Z,3.7
2019-01-31T11:36:03.490Z,3.9
2019-01-31T11:37:02.986Z,3.7
2019-01-31T11:38:02.992Z,3.5
2019-01-31T11:39:03.234Z,3.5
2019-01-31T11:40:03.017Z,3.4
2019-01-31T11:41:03.344Z,3.3
2019-01-31T11:42:03.316Z,3.3
2019-01-31T11:43:11.464Z,3.5
2019-01-31T11:44:02.739Z,3.4
2019-01-31T11:45:02.766Z,3.5
2019-01-31T11:46:02.704Z,4.1
2019-01-31T11:47:49.563Z,4.1
2019-01-31T11:48:03.349Z,4.1
2019-01-31T11:49:03.391Z,4.6
2019-01-31T11:50:02.895Z,4.5
2019-01-31T11:51:03.198Z,4.9
2019-01-31T11:52:03.220Z,4.7
2019-01-31T11:53:02.725Z,5.1
2019-01-31T11:54:03.550Z,4.5
2019-01-31T11:55:03.114Z,4.3
2019-01-31T11:56:02.899Z,4.3
2019-01-31T11:57:05.402Z,4.3
2019-01-31T11:58:03.445Z,4.2
2019-01-31T11:59:03.443Z,4.1
2019-01-31T12:00:03.700Z,3.9
2019-01-31T12:01:04.089Z,3.9
2019-01-31T12:02:03.000Z,4.1
2019-01-31T12:03:03.337Z,4.1
2019-01-31T12:04:02.844Z,3.6
2019-01-31T12:05:02.883Z,3.6
2019-01-31T12:06:02.636Z,3.6
2019-01-31T12:07:02.837Z,4.1
2019-01-31T12:08:03.212Z,4.4
2019-01-31T12:09:02.830Z,4.4
2019-01-31T12:10:03.056Z,4.4
2019-01-31T12:11:02.772Z,4.6
2019-01-31T12:12:02.919Z,4.3
2019-01-31T12:13:02.786Z,4.4
2019-01-31T12:14:03.276Z,3.5
2019-01-31T12:15:03.540Z,3.6
2019-01-31T12:16:03.147Z,3.8
2019-01-31T12:17:03.419Z,4.1
2019-01-31T12:18:03.078Z,4
2019-01-31T12:19:03.653Z,4
2019-01-31T12:20:02.935Z,4
2019-01-31T12:21:03.521Z,4.4
2019-01-31T12:22:03.198Z,4.6
2019-01-31T12:23:03.349Z,4.6
2019-01-31T12:24:02.206Z,4.4
2019-01-31T12:25:03.580Z,4.3
2019-01-31T12:26:03.153Z,4.3
2019-01-31T12:27:02.790Z,4.4
2019-01-31T12:28:02.789Z,4.5
2019-01-31T12:29:03.265Z,4.4
2019-01-31T12:30:03.654Z,4.3
2019-01-31T12:31:02.856Z,4.3
2019-01-31T12:32:02.918Z,4.3
2019-01-31T12:33:03.578Z,3.7
2019-01-31T12:34:02.924Z,3.5
2019-01-31T12:35:03.148Z,3.6
2019-01-31T12:36:02.872Z,3.6
2019-01-31T12:37:03.054Z,3.6
2019-01-31T12:38:02.825Z,3.4
2019-01-31T12:39:03.743Z,3.2
2019-01-31T12:40:03.608Z,3.1
2019-01-31T12:41:03.362Z,3.2
2019-01-31T12:42:03.628Z,3.2
2019-01-31T12:43:02.914Z,3.3
2019-01-31T12:44:03.397Z,3
2019-01-31T12:45:03.460Z,3.4
2019-01-31T12:46:02.857Z,3.4
2019-01-31T12:47:02.634Z,3.5
2019-01-31T12:48:02.006Z,3.6
2019-01-31T12:49:02.756Z,3.7
2019-01-31T12:50:03.453Z,3.4
2019-01-31T12:51:02.975Z,3.1
2019-01-31T12:52:04.292Z,3.2
2019-01-31T12:53:03.313Z,3.4
2019-01-31T12:54:03.172Z,3.8
2019-01-31T12:55:03.441Z,3.6
2019-01-31T12:56:03.491Z,4
2019-01-31T12:57:02.804Z,4.1
2019-01-31T12:58:03.444Z,4.1
2019-01-31T12:59:03.145Z,3.9
2019-01-31T13:00:03.411Z,3.9
2019-01-31T13:01:03.640Z,3.8
2019-01-31T13:02:02.716Z,3.8
2019-01-31T13:03:03.442Z,3.7
2019-01-31T13:04:02.992Z,3.4
2019-01-31T13:05:02.845Z,3.6
2019-01-31T13:06:03.138Z,3.6
2019-01-31T13:07:03.350Z,3.7
2019-01-31T13:08:03.275Z,3.8
2019-01-31T13:09:03.154Z,3.9
2019-01-31T13:10:03.352Z,3.6
2019-01-31T13:11:03.524Z,3.6
2019-01-31T13:12:02.190Z,3.3
2019-01-31T13:13:02.858Z,3.1
2019-01-31T13:14:02.957Z,3.3
2019-01-31T13:15:03.499Z,3.5
2019-01-31T13:16:03.372Z,3.6
2019-01-31T13:17:02.909Z,3.5
2019-01-31T13:18:02.975Z,3.4
2019-01-31T13:19:03.486Z,3.6
2019-01-31T13:20:02.937Z,3.4
2019-01-31T13:21:03.591Z,3.3
2019-01-31T13:22:03.108Z,3.3
2019-01-31T13:23:03.436Z,3.3
2019-01-31T13:24:02.687Z,3.4
2019-01-31T13:25:03.025Z,3.4
2019-01-31T13:26:02.601Z,3.4
2019-01-31T13:27:04.095Z,3.4